Time;durP1;ratioP1;P1;durP2;ratioP2;P2;SDS_P1;SDS_P2;PMS_P1;PMS_P2;Temp;Humidity;BMP_temperature;BMP_pressure;BME280_temperature;BME280_humidity;BME280_pressure;Samples;Min_cycle;Max_cycle;Signal;HPM_P1;HPM_P2
2023/03/12 06:01:17;;;;;;;;;10.33;5.33;;;;;-147.14;100.00;58812.66;5574554;23;46122;-57
2023/03/12 06:03:42;;;;;;;;;8.33;5.67;;;;;-147.14;100.00;58812.66;4931117;28;45597;-56
2023/03/12 06:06:08;;;;;;;;;8.00;5.00;;;;;-147.14;100.00;58812.66;4931473;28;71289;-56
2023/03/12 06:08:33;;;;;;;;;12.00;7.33;;;;;-147.14;100.00;58812.66;4928407;28;45368;-56
2023/03/12 06:10:59;;;;;;;;;14.67;5.00;;;;;-147.14;100.00;58812.66;4928189;28;45449;-56
2023/03/12 06:13:26;;;;;;;;;7.33;3.33;;;;;-147.14;100.00;58812.66;4933515;28;45565;-57
2023/03/12 06:15:51;;;;;;;;;8.67;6.67;;;;;-147.14;100.00;58812.66;4935532;28;45367;-58
2023/03/12 06:18:16;;;;;;;;;6.67;5.33;;;;;-147.14;100.00;58812.66;4936057;28;59891;-58
2023/03/12 06:20:42;;;;;;;;;10.00;6.00;;;;;-147.14;100.00;58812.66;4929515;28;67383;-56
2023/03/12 06:23:07;;;;;;;;;12.33;7.00;;;;;-147.14;100.00;58812.66;4929790;28;47214;-58
2023/03/12 06:25:33;;;;;;;;;16.00;9.67;;;;;-147.14;100.00;58812.66;4934377;28;45423;-58
2023/03/12 06:27:58;;;;;;;;;13.33;5.00;;;;;-147.14;100.00;58812.66;4934705;28;69722;-57
2023/03/12 06:30:25;;;;;;;;;7.00;5.33;;;;;-147.14;100.00;58812.66;4930518;28;45478;-56
2023/03/12 06:32:51;;;;;;;;;18.00;5.00;;;;;-147.14;100.00;58812.66;4939542;28;45336;-58
2023/03/12 06:35:16;;;;;;;;;5.00;5.00;;;;;-147.14;100.00;58812.66;4925896;28;68402;-58
2023/03/12 06:37:41;;;;;;;;;17.00;6.67;;;;;-147.14;100.00;58812.66;4933613;28;59117;-58
2023/03/12 06:40:09;;;;;;;;;15.67;6.33;;;;;-147.14;100.00;58812.66;4934044;28;52308;-58
2023/03/12 06:42:35;;;;;;;;;5.33;4.00;;;;;-147.14;100.00;58812.66;4938833;28;45524;-58
2023/03/12 06:45:00;;;;;;;;;10.00;7.67;;;;;-147.14;100.00;58812.66;4940238;28;46644;-58
2023/03/12 06:47:26;;;;;;;;;13.00;7.00;;;;;-147.14;100.00;58812.66;4939067;28;53779;-58
2023/03/12 06:49:51;;;;;;;;;10.67;5.67;;;;;-147.14;100.00;58812.66;4937728;28;45549;-58
2023/03/12 06:52:16;;;;;;;;;7.33;6.33;;;;;-147.14;100.00;58812.66;4927957;28;66296;-58
2023/03/12 06:54:42;;;;;;;;;12.33;5.33;;;;;-147.14;100.00;58812.66;4932288;28;58237;-58
2023/03/12 06:57:07;;;;;;;;;15.67;10.00;;;;;-147.14;100.00;58812.66;4937000;28;45457;-58
2023/03/12 06:59:33;;;;;;;;;9.67;6.67;;;;;-147.14;100.00;58812.66;4937613;28;45259;-58
2023/03/12 07:01:58;;;;;;;;;6.33;6.00;;;;;-147.14;100.00;58812.66;4934034;28;46517;-58
2023/03/12 07:04:23;;;;;;;;;9.00;6.67;;;;;-147.14;100.00;58812.66;4934870;28;71357;-58
2023/03/12 07:06:50;;;;;;;;;11.00;9.67;;;;;-147.14;100.00;58812.66;4930288;28;53003;-59
2023/03/12 07:09:17;;;;;;;;;11.33;8.67;;;;;-147.14;100.00;58812.66;4936528;28;45429;-58
2023/03/12 07:11:42;;;;;;;;;9.00;6.33;;;;;-147.14;100.00;58812.66;4931319;28;45437;-58
2023/03/12 07:14:07;;;;;;;;;13.33;4.33;;;;;-147.14;100.00;58812.66;4927081;28;45303;-58
2023/03/12 07:16:33;;;;;;;;;10.33;6.00;;;;;-147.14;100.00;58812.66;4941549;28;45374;-58
2023/03/12 07:18:59;;;;;;;;;10.00;7.67;;;;;-147.14;100.00;58812.66;4936493;28;45564;-58
2023/03/12 07:21:25;;;;;;;;;9.67;6.00;;;;;-147.14;100.00;58812.66;4930126;28;69075;-57
2023/03/12 07:23:51;;;;;;;;;9.00;5.00;;;;;-147.14;100.00;58812.66;4924775;28;45701;-58
2023/03/12 07:26:16;;;;;;;;;17.67;7.33;;;;;-147.14;100.00;58812.66;4926522;28;45327;-61
2023/03/12 07:28:42;;;;;;;;;12.00;7.00;;;;;-147.14;100.00;58812.66;4926622;28;45430;-57
2023/03/12 07:31:07;;;;;;;;;13.33;7.00;;;;;-147.14;100.00;58812.66;4926413;28;46257;-58
2023/03/12 07:33:33;;;;;;;;;13.33;6.67;;;;;-147.14;100.00;58812.66;4924319;28;70480;-57
2023/03/12 07:35:58;;;;;;;;;11.00;4.00;;;;;-147.14;100.00;58812.66;4928305;28;45445;-57
2023/03/12 07:38:24;;;;;;;;;11.00;6.67;;;;;-147.14;100.00;58812.66;4936984;28;45578;-57
2023/03/12 07:40:51;;;;;;;;;11.00;7.00;;;;;-147.14;100.00;58812.66;4928600;28;46986;-58
2023/03/12 07:43:16;;;;;;;;;10.00;7.00;;;;;-147.14;100.00;58812.66;4933200;28;45389;-57
2023/03/12 07:45:41;;;;;;;;;12.33;8.33;;;;;-147.14;100.00;58812.66;4929324;28;60879;-57
2023/03/12 07:48:07;;;;;;;;;11.00;6.33;;;;;-147.14;100.00;58812.66;4933548;28;72436;-57
2023/03/12 07:50:33;;;;;;;;;9.33;8.00;;;;;-147.14;100.00;58812.66;4932967;28;46518;-57
2023/03/12 07:52:59;;;;;;;;;8.67;5.67;;;;;-147.14;100.00;58812.66;4929675;28;45537;-57
2023/03/12 07:55:24;;;;;;;;;6.33;5.00;;;;;-147.14;100.00;58812.66;4930502;28;63416;-57
2023/03/12 07:57:49;;;;;;;;;9.00;6.33;;;;;-147.14;100.00;58812.66;4931016;28;65623;-57
2023/03/12 08:00:15;;;;;;;;;12.33;7.00;;;;;-147.14;100.00;58812.66;4938655;28;52756;-58
2023/03/12 08:02:41;;;;;;;;;17.33;5.67;;;;;-147.14;100.00;58812.66;4932947;28;45501;-57
2023/03/12 08:05:07;;;;;;;;;11.33;6.33;;;;;-147.14;100.00;58812.66;4939009;28;66737;-58
2023/03/12 08:07:33;;;;;;;;;11.67;8.00;;;;;-147.14;100.00;58812.66;4930117;28;45481;-57
2023/03/12 08:10:00;;;;;;;;;4.67;4.33;;;;;-147.14;100.00;58812.66;4933480;28;45432;-57
2023/03/12 08:12:26;;;;;;;;;9.33;6.00;;;;;-147.14;100.00;58812.66;4940256;28;45376;-57
2023/03/12 08:14:51;;;;;;;;;9.67;6.67;;;;;-147.14;100.00;58812.66;4938862;28;45513;-57
2023/03/12 08:17:17;;;;;;;;;7.67;7.00;;;;;-147.14;100.00;58812.66;4924668;28;67911;-57
2023/03/12 08:19:42;;;;;;;;;16.67;9.00;;;;;-147.14;100.00;58812.66;4934929;28;45595;-57
2023/03/12 08:22:07;;;;;;;;;10.33;5.00;;;;;-147.14;100.00;58812.66;4932078;28;46430;-57
2023/03/12 08:24:34;;;;;;;;;8.33;5.67;;;;;-147.14;100.00;58812.66;4928459;28;67020;-57
2023/03/12 08:26:59;;;;;;;;;9.33;4.00;;;;;-147.14;100.00;58812.66;4927384;28;45651;-58
2023/03/12 08:29:25;;;;;;;;;12.00;6.00;;;;;-147.14;100.00;58812.66;4926130;28;47132;-58
2023/03/12 08:31:50;;;;;;;;;7.67;5.67;;;;;-147.14;100.00;58812.66;4929934;28;45533;-58
2023/03/12 08:34:16;;;;;;;;;7.67;5.67;;;;;-147.14;100.00;58812.66;4921844;28;45278;-58
2023/03/12 08:36:41;;;;;;;;;10.00;6.00;;;;;-147.14;100.00;58812.66;4947956;28;56320;-57
2023/03/12 08:39:06;;;;;;;;;7.33;5.33;;;;;-147.14;100.00;58812.66;4940257;28;62162;-58
2023/03/12 08:41:32;;;;;;;;;8.67;6.67;;;;;-147.14;100.00;58812.66;4925155;28;71877;-57
2023/03/12 08:43:57;;;;;;;;;10.67;8.33;;;;;-147.14;100.00;58812.66;4949209;28;45431;-57
2023/03/12 08:46:22;;;;;;;;;12.33;5.33;;;;;-147.14;100.00;58812.66;4939677;28;60519;-57
2023/03/12 08:48:48;;;;;;;;;15.00;5.00;;;;;-147.14;100.00;58812.66;4930235;28;72225;-58
2023/03/12 08:51:13;;;;;;;;;12.33;5.00;;;;;-147.14;100.00;58812.66;4933538;28;70351;-57
2023/03/12 08:53:40;;;;;;;;;14.00;7.33;;;;;-147.14;100.00;58812.66;4928856;28;67097;-52
2023/03/12 08:56:06;;;;;;;;;7.33;4.33;;;;;-147.14;100.00;58812.66;4938342;28;45522;-58
2023/03/12 08:58:31;;;;;;;;;11.00;9.33;;;;;-147.14;100.00;58812.66;4930545;28;45507;-58
2023/03/12 09:00:56;;;;;;;;;8.33;7.00;;;;;-147.14;100.00;58812.66;4920943;28;45236;-58
2023/03/12 09:03:22;;;;;;;;;10.67;5.00;;;;;-147.14;100.00;58812.66;4921532;28;45350;-58
2023/03/12 09:05:50;;;;;;;;;8.33;5.00;;;;;-147.14;100.00;58812.66;4922727;28;45546;-58
2023/03/12 09:08:16;;;;;;;;;15.00;6.67;;;;;-147.14;100.00;58812.66;4921938;28;45549;-58
2023/03/12 09:10:47;;;;;;;;;9.33;5.00;;;;;-147.14;100.00;58812.66;4940091;28;45408;-58
2023/03/12 09:13:12;;;;;;;;;5.67;5.00;;;;;-147.14;100.00;58812.66;4925599;28;45371;-58
2023/03/12 09:15:38;;;;;;;;;11.00;7.67;;;;;-147.14;100.00;58812.66;4931043;28;64287;-58
2023/03/12 09:18:03;;;;;;;;;8.00;4.67;;;;;-147.14;100.00;58812.66;4928633;28;71327;-58
2023/03/12 09:20:29;;;;;;;;;9.00;4.00;;;;;-147.14;100.00;58812.66;4933330;28;57825;-58
2023/03/12 09:22:54;;;;;;;;;9.33;6.00;;;;;-147.14;100.00;58812.66;4937077;28;45635;-59
2023/03/12 09:25:21;;;;;;;;;4.67;2.00;;;;;-147.14;100.00;58812.66;4931881;28;70656;-58
2023/03/12 09:27:47;;;;;;;;;7.00;5.00;;;;;-147.14;100.00;58812.66;4930776;28;46210;-58
2023/03/12 09:30:16;;;;;;;;;11.33;6.00;;;;;-147.14;100.00;58812.66;4926199;28;45318;-58
2023/03/12 09:32:43;;;;;;;;;6.33;3.33;;;;;-147.14;100.00;58812.66;4925909;28;45315;-58
2023/03/12 09:35:08;;;;;;;;;17.00;6.33;;;;;-147.14;100.00;58812.66;4921563;28;45561;-55
2023/03/12 09:37:34;;;;;;;;;15.33;7.00;;;;;-147.14;100.00;58812.66;4936021;28;46252;-59
2023/03/12 09:39:59;;;;;;;;;5.67;4.33;;;;;-147.14;100.00;58812.66;4940207;28;69540;-59
2023/03/12 09:42:31;;;;;;;;;10.33;4.00;;;;;-147.14;100.00;58812.66;4937113;28;69154;-58
2023/03/12 09:44:59;;;;;;;;;6.00;4.00;;;;;-147.14;100.00;58812.66;4949433;28;45596;-58
2023/03/12 09:47:33;;;;;;;;;6.33;3.67;;;;;-147.14;100.00;58812.66;4932975;28;46536;-59
2023/03/12 09:50:05;;;;;;;;;9.67;5.33;;;;;-147.14;100.00;58812.66;4941196;28;45346;-58
2023/03/12 09:53:05;;;;;;;;;7.67;5.67;;;;;-147.14;100.00;58812.66;4927009;28;45485;-59
2023/03/12 09:55:35;;;;;;;;;6.33;4.00;;;;;-147.14;100.00;58812.66;4941105;28;45430;-58
2023/03/12 09:58:00;;;;;;;;;6.33;4.67;;;;;-147.14;100.00;58812.66;4940578;28;47523;-59
2023/03/12 10:00:31;;;;;;;;;8.00;4.67;;;;;-147.14;100.00;58812.66;4933068;28;61528;-59
2023/03/12 10:03:06;;;;;;;;;1.33;1.00;;;;;-147.14;100.00;58812.66;4951155;28;45378;-58
2023/03/12 10:05:50;;;;;;;;;10.33;4.00;;;;;-147.14;100.00;58812.66;4926234;28;45687;-58
2023/03/12 10:08:21;;;;;;;;;6.33;4.00;;;;;-147.14;100.00;58812.66;4934758;28;46358;-59
2023/03/12 10:11:07;;;;;;;;;2.00;2.00;;;;;-147.14;100.00;58812.66;4935711;28;45306;-59
2023/03/12 10:13:39;;;;;;;;;5.67;3.00;;;;;-147.14;100.00;58812.66;4936342;28;47370;-59
2023/03/12 10:16:11;;;;;;;;;4.00;4.00;;;;;-147.14;100.00;58812.66;4934169;28;45507;-59
2023/03/12 10:18:59;;;;;;;;;4.33;2.33;;;;;-147.14;100.00;58812.66;4942915;28;47443;-68
2023/03/12 10:21:32;;;;;;;;;11.00;8.00;;;;;-147.14;100.00;58812.66;4926760;28;45348;-70
2023/03/12 10:24:30;;;;;;;;;7.33;5.67;;;;;-147.14;100.00;58812.66;4954101;28;45483;-69
2023/03/12 10:26:56;;;;;;;;;3.00;2.00;;;;;-147.14;100.00;58812.66;4931246;28;45685;-69
2023/03/12 10:29:28;;;;;;;;;6.67;5.33;;;;;-147.14;100.00;58812.66;4920138;28;47459;-69
2023/03/12 10:32:09;;;;;;;;;12.00;3.00;;;;;-147.14;100.00;58812.66;4926050;28;45628;-60
2023/03/12 10:34:42;;;;;;;;;16.33;7.00;;;;;-147.14;100.00;58812.66;4929004;28;45307;-59
2023/03/12 10:37:16;;;;;;;;;11.67;6.00;;;;;-147.14;100.00;58812.66;4932472;28;45819;-60
2023/03/12 10:39:41;;;;;;;;;9.67;8.00;;;;;-147.14;100.00;58812.66;4930105;28;45579;-69
2023/03/12 10:42:19;;;;;;;;;7.00;5.00;;;;;-147.14;100.00;58812.66;4934093;28;45477;-69
2023/03/12 10:44:50;;;;;;;;;6.00;4.33;;;;;-147.14;100.00;58812.66;4930458;28;45533;-69
2023/03/12 10:47:19;;;;;;;;;8.67;4.67;;;;;-147.14;100.00;58812.66;4937064;28;45375;-69
2023/03/12 10:49:49;;;;;;;;;15.67;6.33;;;;;-147.14;100.00;58812.66;4926986;28;45456;-70
2023/03/12 10:52:17;;;;;;;;;4.33;4.33;;;;;-147.14;100.00;58812.66;4931803;28;45435;-70
2023/03/12 10:54:45;;;;;;;;;4.00;3.00;;;;;-147.14;100.00;58812.66;4926120;28;45478;-64
2023/03/12 10:57:12;;;;;;;;;8.00;5.00;;;;;-147.14;100.00;58812.66;4929856;28;45489;-68
2023/03/12 10:59:42;;;;;;;;;8.00;5.00;;;;;-147.14;100.00;58812.66;4929104;28;45726;-58
2023/03/12 11:02:29;;;;;;;;;6.00;3.00;;;;;-147.14;100.00;58812.66;4929001;28;45744;-58
2023/03/12 11:04:54;;;;;;;;;4.67;3.33;;;;;-147.14;100.00;58812.66;4940344;28;45583;-67
2023/03/12 11:07:32;;;;;;;;;5.67;3.00;;;;;-147.14;100.00;58812.66;4928324;28;45354;-58
2023/03/12 11:10:07;;;;;;;;;6.00;3.67;;;;;-147.14;100.00;58812.66;4934094;28;45457;-67
2023/03/12 11:12:35;;;;;;;;;7.33;4.00;;;;;-147.14;100.00;58812.66;4938222;28;45530;-67
2023/03/12 11:15:23;;;;;;;;;5.00;4.00;;;;;-147.14;100.00;58812.66;4928283;28;45393;-68
2023/03/12 11:17:48;;;;;;;;;13.00;5.67;;;;;-147.14;100.00;58812.66;4928503;28;45688;-68
2023/03/12 11:20:24;;;;;;;;;11.67;6.33;;;;;-147.14;100.00;58812.66;4920407;28;68690;-68
2023/03/12 11:22:50;;;;;;;;;0.00;0.00;;;;;-147.14;100.00;58812.66;4919895;28;45491;-67
2023/03/12 11:25:26;;;;;;;;;5.00;5.00;;;;;-147.14;100.00;58812.66;4919839;28;52960;-57
2023/03/12 11:27:54;;;;;;;;;6.67;6.00;;;;;-147.14;100.00;58812.66;4927264;28;45276;-59
2023/03/12 11:30:28;;;;;;;;;11.33;5.00;;;;;-147.14;100.00;58812.66;4929323;28;46398;-59
2023/03/12 11:32:56;;;;;;;;;4.67;2.00;;;;;-147.14;100.00;58812.66;4928228;28;45382;-57
2023/03/12 11:35:38;;;;;;;;;5.67;5.67;;;;;-147.14;100.00;58812.66;4927512;28;45513;-59
2023/03/12 11:38:25;;;;;;;;;3.33;3.33;;;;;-147.14;100.00;58812.66;4928138;28;45355;-58
2023/03/12 11:40:56;;;;;;;;;4.00;3.00;;;;;-147.14;100.00;58812.66;4930261;28;45553;-58
2023/03/12 11:43:49;;;;;;;;;7.67;4.00;;;;;-147.14;100.00;58812.66;4928312;28;46148;-58
2023/03/12 11:46:36;;;;;;;;;14.00;5.67;;;;;-147.14;100.00;58812.66;4927433;28;45683;-53
2023/03/12 11:49:13;;;;;;;;;8.00;5.00;;;;;-147.14;100.00;58812.66;4923436;28;45452;-58
2023/03/12 11:51:46;;;;;;;;;8.00;4.33;;;;;-147.14;100.00;58812.66;4920428;28;47288;-58
2023/03/12 11:54:39;;;;;;;;;5.67;4.00;;;;;-147.14;100.00;58812.66;4919438;28;45444;-58
2023/03/12 11:57:12;;;;;;;;;6.00;3.00;;;;;-147.14;100.00;58812.66;4919579;28;45386;-58
2023/03/12 12:00:11;;;;;;;;;4.00;3.00;;;;;-147.14;100.00;58812.66;4919905;28;45505;-58
2023/03/12 12:02:58;;;;;;;;;7.00;3.67;;;;;-147.14;100.00;58812.66;4918354;28;45965;-59
2023/03/12 12:05:35;;;;;;;;;7.00;5.00;;;;;-147.14;100.00;58812.66;4919190;28;45701;-58
2023/03/12 12:08:10;;;;;;;;;5.33;3.67;;;;;-147.14;100.00;58812.66;4931720;28;47107;-57
2023/03/12 12:10:48;;;;;;;;;7.33;4.33;;;;;-147.14;100.00;58812.66;4939419;28;45351;-59
2023/03/12 12:13:32;;;;;;;;;7.67;3.33;;;;;-147.14;100.00;58812.66;4922528;28;45568;-60
2023/03/12 12:16:23;;;;;;;;;5.00;3.33;;;;;-147.14;100.00;58812.66;4921365;28;45255;-62
2023/03/12 12:19:22;;;;;;;;;8.67;4.67;;;;;-147.14;100.00;58812.66;4926119;28;45673;-63
2023/03/12 12:22:01;;;;;;;;;2.67;2.67;;;;;-147.14;100.00;58812.66;4923975;28;45703;-63
2023/03/12 12:24:47;;;;;;;;;7.00;4.00;;;;;-147.14;100.00;58812.66;4935726;28;45355;-63
2023/03/12 12:27:21;;;;;;;;;7.67;3.00;;;;;-147.14;100.00;58812.66;4938319;28;45452;-63
2023/03/12 12:30:14;;;;;;;;;6.33;4.00;;;;;-147.14;100.00;58812.66;4931886;28;45723;-64
2023/03/12 12:33:04;;;;;;;;;4.00;3.00;;;;;-147.14;100.00;58812.66;4928499;28;45337;-62
2023/03/12 12:35:37;;;;;;;;;3.67;2.00;;;;;-147.14;100.00;58812.66;4930222;28;45489;-62
2023/03/12 12:38:02;;;;;;;;;11.33;7.67;;;;;-147.14;100.00;58812.66;4922643;28;45489;-63
2023/03/12 12:40:40;;;;;;;;;8.67;7.33;;;;;-147.14;100.00;58812.66;4923857;28;45414;-62
2023/03/12 12:43:29;;;;;;;;;4.00;2.67;;;;;-147.14;100.00;58812.66;4926969;28;45491;-64
2023/03/12 12:45:58;;;;;;;;;3.33;1.67;;;;;-147.14;100.00;58812.66;4924537;28;45917;-64
2023/03/12 12:48:27;;;;;;;;;7.00;2.00;;;;;-147.14;100.00;58812.66;4936293;28;45324;-63
2023/03/12 12:50:53;;;;;;;;;2.00;2.00;;;;;-147.14;100.00;58812.66;4920393;28;45353;-63
2023/03/12 12:53:25;;;;;;;;;3.67;3.33;;;;;-147.14;100.00;58812.66;4922141;28;63752;-63
2023/03/12 12:55:54;;;;;;;;;8.67;3.67;;;;;-147.14;100.00;58812.66;4922693;28;45610;-63
2023/03/12 12:58:27;;;;;;;;;5.67;3.00;;;;;-147.14;100.00;58812.66;4920312;28;45510;-63
2023/03/12 13:00:58;;;;;;;;;3.00;3.00;;;;;-147.14;100.00;58812.66;4933499;28;45636;-63
2023/03/12 13:03:25;;;;;;;;;5.00;3.33;;;;;-147.14;100.00;58812.66;4933012;28;45574;-63
2023/03/12 13:05:54;;;;;;;;;4.67;3.00;;;;;-147.14;100.00;58812.66;4923413;28;45294;-65
2023/03/12 13:08:39;;;;;;;;;5.00;3.00;;;;;-147.14;100.00;58812.66;4938115;28;45397;-63
2023/03/12 13:11:13;;;;;;;;;6.00;3.00;;;;;-147.14;100.00;58812.66;4926526;28;45445;-63
2023/03/12 13:13:39;;;;;;;;;4.00;2.00;;;;;-147.14;100.00;58812.66;4938291;28;46189;-64
2023/03/12 13:16:27;;;;;;;;;3.67;3.00;;;;;-147.14;100.00;58812.66;4935543;28;45473;-64
2023/03/12 13:18:57;;;;;;;;;4.67;2.67;;;;;-147.14;100.00;58812.66;4931661;28;45430;-64
2023/03/12 13:21:35;;;;;;;;;4.67;2.00;;;;;-147.14;100.00;58812.66;4928441;28;45801;-62
2023/03/12 13:24:21;;;;;;;;;4.00;3.00;;;;;-147.14;100.00;58812.66;4936876;28;45525;-64
2023/03/12 13:27:13;;;;;;;;;3.00;2.00;;;;;-147.14;100.00;58812.66;4931705;28;45674;-64
2023/03/12 13:29:41;;;;;;;;;2.00;2.00;;;;;-147.14;100.00;58812.66;4928554;28;45495;-63
2023/03/12 13:32:35;;;;;;;;;4.00;2.67;;;;;-147.14;100.00;58812.66;4928080;28;45628;-64
2023/03/12 13:35:30;;;;;;;;;2.00;2.00;;;;;-147.14;100.00;58812.66;4929776;28;45827;-63
2023/03/12 13:38:00;;;;;;;;;4.33;3.00;;;;;-147.14;100.00;58812.66;4929242;28;45513;-63
2023/03/12 13:40:28;;;;;;;;;5.00;3.00;;;;;-147.14;100.00;58812.66;4931050;28;45673;-63
2023/03/12 13:43:10;;;;;;;;;3.67;1.67;;;;;-147.14;100.00;58812.66;4935018;28;45640;-63
2023/03/12 13:46:04;;;;;;;;;6.00;3.00;;;;;-147.14;100.00;58812.66;4929166;28;45616;-64
2023/03/12 13:48:29;;;;;;;;;6.33;2.33;;;;;-147.14;100.00;58812.66;4931421;28;45410;-65
2023/03/12 13:51:07;;;;;;;;;4.33;3.00;;;;;-147.14;100.00;58812.66;4931014;28;53371;-64
2023/03/12 13:53:35;;;;;;;;;5.00;4.00;;;;;-147.14;100.00;58812.66;4955854;28;45524;-64
2023/03/12 13:56:10;;;;;;;;;5.33;4.33;;;;;-147.14;100.00;58812.66;4935262;28;45471;-64
2023/03/12 13:58:54;;;;;;;;;3.00;3.00;;;;;-147.14;100.00;58812.66;4927606;28;46639;-64
2023/03/12 14:01:22;;;;;;;;;7.67;2.33;;;;;-147.14;100.00;58812.66;4933321;28;45510;-64
2023/03/12 14:03:52;;;;;;;;;3.67;2.00;;;;;-147.14;100.00;58812.66;4923091;28;45735;-64
2023/03/12 14:06:22;;;;;;;;;3.67;1.00;;;;;-147.14;100.00;58812.66;4933469;28;45559;-64
2023/03/12 14:08:47;;;;;;;;;2.67;2.00;;;;;-147.14;100.00;58812.66;4919302;28;47305;-64
2023/03/12 14:11:41;;;;;;;;;3.00;2.00;;;;;-147.14;100.00;58812.66;4937546;28;45425;-64
2023/03/12 14:14:15;;;;;;;;;5.67;3.00;;;;;-147.14;100.00;58812.66;4930615;28;45469;-65
2023/03/12 14:16:48;;;;;;;;;3.00;1.67;;;;;-147.14;100.00;58812.66;4937397;28;45501;-62
2023/03/12 14:19:16;;;;;;;;;4.33;2.00;;;;;-147.14;100.00;58812.66;4936440;28;47205;-62
2023/03/12 14:21:44;;;;;;;;;4.33;3.33;;;;;-147.14;100.00;58812.66;4932354;28;45663;-61
2023/03/12 14:24:22;;;;;;;;;5.00;3.00;;;;;-147.14;100.00;58812.66;4932132;28;45592;-62
2023/03/12 14:26:48;;;;;;;;;2.00;2.00;;;;;-147.14;100.00;58812.66;4932587;28;45387;-62
2023/03/12 14:29:20;;;;;;;;;7.00;2.00;;;;;-147.14;100.00;58812.66;4929159;28;46448;-61
2023/03/12 14:31:47;;;;;;;;;4.33;3.00;;;;;-147.14;100.00;58812.66;4933551;28;45573;-62
2023/03/12 14:34:20;;;;;;;;;8.67;3.67;;;;;-147.14;100.00;58812.66;4921147;28;45818;-61
2023/03/12 14:36:45;;;;;;;;;3.67;2.33;;;;;-147.14;100.00;58812.66;4925779;28;45466;-61
2023/03/12 14:39:35;;;;;;;;;3.00;1.00;;;;;-147.14;100.00;58812.66;4921715;28;46331;-62
2023/03/12 14:42:06;;;;;;;;;2.67;2.67;;;;;-147.14;100.00;58812.66;4921852;28;45428;-66
2023/03/12 14:44:37;;;;;;;;;3.33;2.00;;;;;-147.14;100.00;58812.66;4924522;28;45252;-63
2023/03/12 14:47:10;;;;;;;;;4.33;2.00;;;;;-147.14;100.00;58812.66;4926137;28;45430;-72
2023/03/12 14:49:41;;;;;;;;;3.33;2.67;;;;;-147.14;100.00;58812.66;4945703;28;45695;-62
2023/03/12 14:52:10;;;;;;;;;6.33;3.00;;;;;-147.14;100.00;58812.66;4932233;28;45323;-62
2023/03/12 14:54:37;;;;;;;;;2.00;2.00;;;;;-147.14;100.00;58812.66;4937427;28;45448;-63
2023/03/12 14:57:03;;;;;;;;;1.00;1.00;;;;;-147.14;100.00;58812.66;4929576;28;45515;-62
2023/03/12 14:59:30;;;;;;;;;4.67;2.00;;;;;-147.14;100.00;58812.66;4928657;28;70435;-63
2023/03/12 15:02:17;;;;;;;;;1.67;1.67;;;;;-147.14;100.00;58812.66;4924227;28;45728;-61
2023/03/12 15:04:42;;;;;;;;;4.33;1.33;;;;;-147.14;100.00;58812.66;4921974;28;45796;-61
2023/03/12 15:07:13;;;;;;;;;2.33;2.33;;;;;-147.14;100.00;58812.66;4921823;28;63763;-61
2023/03/12 15:09:42;;;;;;;;;3.00;2.00;;;;;-147.14;100.00;58812.66;4926539;28;47721;-60
2023/03/12 15:12:21;;;;;;;;;3.00;1.67;;;;;-147.14;100.00;58812.66;4932733;28;45533;-60
2023/03/12 15:14:48;;;;;;;;;2.00;2.00;;;;;-147.14;100.00;58812.66;4929207;28;45499;-61
2023/03/12 15:17:18;;;;;;;;;4.00;3.00;;;;;-147.14;100.00;58812.66;4923842;28;45496;-60
2023/03/12 15:19:44;;;;;;;;;4.33;1.33;;;;;-147.14;100.00;58812.66;4925331;28;47453;-63
2023/03/12 15:22:14;;;;;;;;;3.00;1.00;;;;;-147.14;100.00;58812.66;4927863;28;45519;-62
2023/03/12 15:24:39;;;;;;;;;2.00;2.00;;;;;-147.14;100.00;58812.66;4925030;28;45424;-62
2023/03/12 15:27:40;;;;;;;;;4.67;2.67;;;;;-147.14;100.00;58812.66;4934007;28;45339;-62
2023/03/12 15:30:23;;;;;;;;;4.00;3.00;;;;;-147.14;100.00;58812.66;4910482;28;69505;-62
2023/03/12 15:33:08;;;;;;;;;7.00;4.00;;;;;-147.14;100.00;58812.66;4928517;28;45599;-62
2023/03/12 15:35:58;;;;;;;;;5.00;2.00;;;;;-147.14;100.00;58812.66;4931920;28;45387;-62
2023/03/12 15:38:24;;;;;;;;;3.00;3.00;;;;;-147.14;100.00;58812.66;4933910;28;45594;-62
2023/03/12 15:40:52;;;;;;;;;6.00;3.00;;;;;-147.14;100.00;58812.66;4929915;28;74603;-62
2023/03/12 15:43:20;;;;;;;;;5.33;3.00;;;;;-147.14;100.00;58812.66;4923268;28;45383;-62
2023/03/12 15:45:46;;;;;;;;;4.00;2.00;;;;;-147.14;100.00;58812.66;4936156;28;45516;-63
2023/03/12 15:48:35;;;;;;;;;2.00;2.00;;;;;-147.14;100.00;58812.66;4922082;28;45505;-62
2023/03/12 15:51:01;;;;;;;;;3.67;3.33;;;;;-147.14;100.00;58812.66;4930285;28;47594;-62
2023/03/12 15:53:31;;;;;;;;;3.00;1.00;;;;;-147.14;100.00;58812.66;4930978;28;45559;-63
2023/03/12 15:56:19;;;;;;;;;2.33;2.33;;;;;-147.14;100.00;58812.66;4913735;28;45603;-62
2023/03/12 15:58:45;;;;;;;;;3.67;2.00;;;;;-147.14;100.00;58812.66;4932503;28;45647;-62
2023/03/12 16:01:15;;;;;;;;;2.00;2.00;;;;;-147.14;100.00;58812.66;4927117;28;45494;-58
2023/03/12 16:03:44;;;;;;;;;6.00;3.33;;;;;-147.14;100.00;58812.66;4935053;28;45583;-62
2023/03/12 16:06:17;;;;;;;;;5.00;3.00;;;;;-147.14;100.00;58812.66;4934857;28;45412;-61
2023/03/12 16:08:49;;;;;;;;;4.00;3.00;;;;;-147.14;100.00;58812.66;4921703;28;45654;-62
2023/03/12 16:11:21;;;;;;;;;5.33;5.00;;;;;-147.14;100.00;58812.66;4926568;28;45534;-62
2023/03/12 16:13:48;;;;;;;;;3.67;2.33;;;;;-147.14;100.00;58812.66;4932027;28;45266;-62
2023/03/12 16:16:14;;;;;;;;;4.00;4.00;;;;;-147.14;100.00;58812.66;4933973;28;45383;-62
2023/03/12 16:18:41;;;;;;;;;5.00;3.00;;;;;-147.14;100.00;58812.66;4930683;28;45540;-62
2023/03/12 16:21:06;;;;;;;;;4.67;3.67;;;;;-147.14;100.00;58812.66;4930606;28;46440;-62
2023/03/12 16:23:32;;;;;;;;;5.33;3.00;;;;;-147.14;100.00;58812.66;4936595;28;45953;-63
2023/03/12 16:25:58;;;;;;;;;4.00;2.67;;;;;-147.14;100.00;58812.66;4925674;28;45567;-63
2023/03/12 16:28:24;;;;;;;;;8.33;4.00;;;;;-147.14;100.00;58812.66;4926180;28;45415;-63
2023/03/12 16:30:50;;;;;;;;;5.33;3.67;;;;;-147.14;100.00;58812.66;4924111;28;45855;-63
2023/03/12 16:33:18;;;;;;;;;4.33;3.00;;;;;-147.14;100.00;58812.66;4927843;28;45720;-62
2023/03/12 16:35:44;;;;;;;;;4.67;3.33;;;;;-147.14;100.00;58812.66;4931813;28;45833;-63
2023/03/12 16:38:09;;;;;;;;;7.00;3.67;;;;;-147.14;100.00;58812.66;4928001;28;51046;-62
2023/03/12 16:40:37;;;;;;;;;2.33;2.33;;;;;-147.14;100.00;58812.66;4933255;28;46590;-62
2023/03/12 16:43:05;;;;;;;;;6.00;4.67;;;;;-147.14;100.00;58812.66;4931669;28;45454;-62
2023/03/12 16:45:33;;;;;;;;;8.00;3.67;;;;;-147.14;100.00;58812.66;4941284;28;45396;-62
2023/03/12 16:48:01;;;;;;;;;7.67;2.00;;;;;-147.14;100.00;58812.66;4924956;28;45808;-62
2023/03/12 16:50:27;;;;;;;;;6.00;4.00;;;;;-147.14;100.00;58812.66;4927116;28;46240;-62
2023/03/12 16:52:52;;;;;;;;;9.33;4.67;;;;;-147.14;100.00;58812.66;4935166;28;45383;-62
2023/03/12 16:55:19;;;;;;;;;3.33;1.67;;;;;-147.14;100.00;58812.66;4932035;28;45706;-62
2023/03/12 16:57:51;;;;;;;;;4.00;3.67;;;;;-147.14;100.00;58812.66;4926507;28;45553;-63
2023/03/12 17:00:22;;;;;;;;;5.00;2.67;;;;;-147.14;100.00;58812.66;4924145;28;45770;-62
2023/03/12 17:02:48;;;;;;;;;6.33;4.00;;;;;-147.14;100.00;58812.66;4920046;28;45592;-62
2023/03/12 17:05:15;;;;;;;;;5.33;3.33;;;;;-147.14;100.00;58812.66;4922583;28;46000;-61
2023/03/12 17:07:40;;;;;;;;;4.00;4.00;;;;;-147.14;100.00;58812.66;4942122;28;45412;-61
2023/03/12 17:10:06;;;;;;;;;5.67;3.67;;;;;-147.14;100.00;58812.66;4935024;28;46455;-61
2023/03/12 17:12:37;;;;;;;;;8.33;5.00;;;;;-147.14;100.00;58812.66;4934604;28;45569;-63
2023/03/12 17:15:05;;;;;;;;;8.00;3.33;;;;;-147.14;100.00;58812.66;4931524;28;46249;-61
2023/03/12 17:17:30;;;;;;;;;6.33;4.00;;;;;-147.14;100.00;58812.66;4937152;28;45656;-61
2023/03/12 17:19:58;;;;;;;;;6.00;3.00;;;;;-147.14;100.00;58812.66;4936752;28;62058;-61
2023/03/12 17:22:24;;;;;;;;;6.33;4.33;;;;;-147.14;100.00;58812.66;4933711;28;45544;-61
2023/03/12 17:24:50;;;;;;;;;4.67;3.33;;;;;-147.14;100.00;58812.66;4935807;28;45629;-61